Time;durP1;ratioP1;P1;durP2;ratioP2;P2;SDS_P1;SDS_P2;PMS_P1;PMS_P2;Temp;Humidity;BMP_temperature;BMP_pressure;BME280_temperature;BME280_humidity;BME280_pressure;Samples;Min_cycle;Max_cycle;Signal;HPM_P1;HPM_P2
2022/03/17 00:00:12;;;;;;;30.20;27.00;;;;;;;10.76;51.05;98687.34;8317448;28;20262;-60
2022/03/17 00:04:15;;;;;;;29.97;26.77;;;;;;;10.84;50.94;98687.94;8318805;28;20229;-60
2022/03/17 00:08:19;;;;;;;30.03;26.70;;;;;;;10.54;51.67;98684.63;8318721;28;20248;-60
2022/03/17 00:12:22;;;;;;;30.73;27.47;;;;;;;10.73;51.11;98687.44;8318397;28;20246;-60
2022/03/17 00:16:32;;;;;;;30.10;27.03;;;;;;;10.38;52.07;98681.69;8318358;28;20233;-60
2022/03/17 00:20:35;;;;;;;30.20;26.90;;;;;;;10.09;52.74;98677.38;8317612;28;20304;-60
2022/03/17 00:24:39;;;;;;;28.37;25.37;;;;;;;9.97;53.61;98666.50;8318058;28;20229;-60
2022/03/17 00:28:42;;;;;;;29.80;26.53;;;;;;;9.81;53.76;98657.53;8317123;28;20243;-60
2022/03/17 00:32:46;;;;;;;28.77;25.87;;;;;;;9.91;53.46;98653.78;8317941;28;20259;-60
2022/03/17 00:36:50;;;;;;;28.97;26.27;;;;;;;9.99;52.84;98653.53;8317166;28;20232;-60
2022/03/17 00:40:53;;;;;;;28.43;25.63;;;;;;;10.19;52.28;98660.69;8317267;28;20244;-60
2022/03/17 00:44:56;;;;;;;29.23;26.23;;;;;;;9.70;53.52;98657.84;8317069;28;20417;-60
2022/03/17 00:49:00;;;;;;;29.80;26.90;;;;;;;9.61;53.89;98645.19;8316812;28;20416;-60
2022/03/17 00:53:04;;;;;;;28.17;25.53;;;;;;;9.73;53.52;98655.19;8316846;28;20237;-60
2022/03/17 00:57:08;;;;;;;29.60;26.60;;;;;;;9.27;54.79;98655.66;8316415;28;20417;-60
2022/03/17 01:01:11;;;;;;;28.57;25.87;;;;;;;9.47;54.12;98643.00;8316667;28;20233;-60
2022/03/17 01:05:16;;;;;;;28.33;25.47;;;;;;;9.48;54.12;98638.69;8316832;28;20539;-60
2022/03/17 01:09:19;;;;;;;28.70;25.90;;;;;;;9.35;54.43;98653.72;8316321;28;20240;-60
2022/03/17 01:13:23;;;;;;;27.33;24.70;;;;;;;9.93;52.76;98657.16;8316452;28;20237;-60
2022/03/17 01:17:26;;;;;;;26.30;23.87;;;;;;;10.17;51.72;98655.56;8316220;28;20247;-60
2022/03/17 01:21:31;;;;;;;28.77;25.97;;;;;;;10.13;51.92;98645.34;8316121;28;20237;-60
2022/03/17 01:25:34;;;;;;;28.00;25.30;;;;;;;10.27;51.44;98645.75;8315711;28;20235;-60
2022/03/17 01:29:38;;;;;;;28.63;25.87;;;;;;;10.24;51.28;98640.66;8316148;28;20233;-60
2022/03/17 01:33:41;;;;;;;27.60;24.80;;;;;;;10.35;51.02;98642.94;8315943;28;20419;-60
2022/03/17 01:37:45;;;;;;;27.83;25.13;;;;;;;10.31;50.85;98642.19;8315899;28;20233;-60
2022/03/17 01:41:48;;;;;;;26.47;23.97;;;;;;;9.82;52.31;98627.34;8316006;28;20239;-60
2022/03/17 01:45:52;;;;;;;26.63;24.13;;;;;;;9.81;52.28;98633.41;8317630;28;20208;-60
2022/03/17 01:49:56;;;;;;;27.50;24.90;;;;;;;9.50;53.33;98631.72;8317409;28;20212;-60
2022/03/17 01:54:00;;;;;;;28.53;25.60;;;;;;;9.55;53.52;98624.69;8317307;28;20196;-60
2022/03/17 01:58:03;;;;;;;28.90;26.00;;;;;;;9.93;52.03;98628.69;8317020;28;20228;-60
2022/03/17 02:02:08;;;;;;;27.47;24.67;;;;;;;10.16;51.21;98620.19;8316915;28;20216;-60
2022/03/17 02:06:11;;;;;;;27.30;24.50;;;;;;;10.31;51.08;98634.41;8314727;28;20287;-60
2022/03/17 02:10:16;;;;;;;28.70;25.90;;;;;;;10.20;51.02;98625.28;8314764;28;20236;-60
2022/03/17 02:14:20;;;;;;;28.87;26.20;;;;;;;9.79;52.38;98623.94;8314766;28;20239;-60
2022/03/17 02:18:24;;;;;;;31.33;28.17;;;;;;;9.35;53.10;98628.72;8314521;28;20236;-60
2022/03/17 02:22:28;;;;;;;29.60;26.53;;;;;;;9.24;53.64;98615.25;8314544;28;20248;-60
2022/03/17 02:26:33;;;;;;;27.90;25.27;;;;;;;9.08;54.35;98604.50;8314013;28;20259;-60
2022/03/17 02:30:38;;;;;;;29.57;26.50;;;;;;;9.23;53.80;98605.78;8314360;28;20228;-60
2022/03/17 02:34:42;;;;;;;28.70;25.80;;;;;;;9.44;53.28;98617.25;8314338;28;20232;-60
2022/03/17 02:38:45;;;;;;;28.77;26.00;;;;;;;9.91;51.42;98611.53;8314053;28;20236;-60
2022/03/17 02:42:50;;;;;;;28.90;25.87;;;;;;;9.91;51.41;98611.53;8314314;28;20240;-60
2022/03/17 02:46:53;;;;;;;29.07;26.17;;;;;;;10.07;50.92;98617.94;8314254;28;20540;-60
2022/03/17 02:50:56;;;;;;;28.07;25.33;;;;;;;10.13;50.68;98617.72;8314184;28;20233;-60
2022/03/17 02:54:59;;;;;;;28.43;25.47;;;;;;;10.11;50.93;98613.47;8320154;28;20232;-60
2022/03/17 02:59:03;;;;;;;30.37;27.23;;;;;;;9.74;51.61;98618.06;8320471;28;20233;-60
2022/03/17 03:03:06;;;;;;;29.27;26.30;;;;;;;9.99;50.83;98604.38;8320290;28;20414;-60
2022/03/17 03:07:10;;;;;;;28.83;26.13;;;;;;;9.91;50.83;98607.19;8320212;28;20228;-60
2022/03/17 03:11:13;;;;;;;28.67;25.67;;;;;;;10.03;50.42;98610.28;8320201;28;20236;-60
2022/03/17 03:15:17;;;;;;;27.13;24.53;;;;;;;10.18;50.79;98622.75;8320066;28;20228;-60
2022/03/17 03:19:20;;;;;;;26.57;24.07;;;;;;;10.20;50.68;98618.34;8319661;28;20236;-60
2022/03/17 03:23:23;;;;;;;27.50;24.80;;;;;;;10.16;50.38;98627.13;8319999;28;20255;-60
2022/03/17 03:27:27;;;;;;;27.03;24.33;;;;;;;10.24;50.67;98635.47;8319809;28;20233;-60
2022/03/17 03:31:32;;;;;;;27.27;24.37;;;;;;;10.29;50.30;98645.69;8319547;28;20237;-60
2022/03/17 03:39:57;;;;;;;26.13;23.67;;;;;;;10.17;50.61;98672.81;8318883;28;20236;-60
2022/03/17 03:44:00;;;;;;;27.53;24.87;;;;;;;10.16;50.71;98684.91;8318781;28;20228;-60
2022/03/17 03:48:05;;;;;;;27.40;24.50;;;;;;;10.17;50.81;98681.44;8318664;28;20239;-60
2022/03/17 03:52:09;;;;;;;27.50;24.77;;;;;;;10.17;50.29;98683.19;8318692;28;20236;-60
2022/03/17 03:56:12;;;;;;;27.57;24.97;;;;;;;10.08;51.18;98681.72;8318734;28;20228;-60
2022/03/17 04:04:35;;;;;;;27.17;24.47;;;;;;;10.13;51.23;98682.44;8313855;28;20236;-60
2022/03/17 04:08:38;;;;;;;27.57;24.87;;;;;;;10.11;51.36;98696.28;8318149;28;20245;-60
2022/03/17 04:12:42;;;;;;;26.47;23.87;;;;;;;10.01;50.85;98674.19;8318395;28;20232;-60
2022/03/17 04:16:45;;;;;;;27.27;24.40;;;;;;;10.02;51.48;98681.06;8317816;28;20240;-60
2022/03/17 04:20:49;;;;;;;27.60;24.60;;;;;;;10.16;51.03;98691.84;8317877;28;20279;-60
2022/03/17 04:24:52;;;;;;;26.10;23.60;;;;;;;10.12;50.75;98692.81;8317842;28;20229;-60
2022/03/17 04:28:56;;;;;;;26.93;24.30;;;;;;;10.09;51.14;98695.50;8317498;28;20229;-60
2022/03/17 04:32:59;;;;;;;26.37;23.63;;;;;;;10.09;51.21;98698.09;8317497;28;20244;-60
2022/03/17 04:37:04;;;;;;;26.37;23.77;;;;;;;10.17;50.81;98694.38;8317502;28;20236;-60
2022/03/17 04:41:08;;;;;;;27.50;24.30;;;;;;;9.93;51.33;98685.63;8317254;28;20244;-60
2022/03/17 04:45:11;;;;;;;30.03;23.63;;;;;;;9.99;51.49;98694.94;8317241;28;20229;-60
2022/03/17 04:49:14;;;;;;;27.53;24.77;;;;;;;10.15;50.87;98706.53;8317351;28;20233;-60
2022/03/17 04:53:29;;;;;;;27.57;25.00;;;;;;;10.01;51.50;98711.25;8317268;28;20233;-60
2022/03/17 04:57:32;;;;;;;27.60;25.00;;;;;;;9.93;52.12;98718.41;8316497;28;20228;-60
2022/03/17 05:01:35;;;;;;;27.27;24.70;;;;;;;9.86;51.70;98720.34;8316626;28;20561;-60
2022/03/17 05:05:38;;;;;;;26.67;24.07;;;;;;;10.02;51.60;98720.72;8316968;28;20232;-60
2022/03/17 05:09:43;;;;;;;26.67;24.07;;;;;;;9.97;51.79;98720.84;8301423;28;20530;-60
2022/03/17 05:13:46;;;;;;;27.90;25.17;;;;;;;9.95;51.64;98735.56;8298953;28;20221;-60
2022/03/17 05:17:49;;;;;;;27.70;24.90;;;;;;;9.91;51.66;98721.03;8298747;28;20554;-60
2022/03/17 05:21:55;;;;;;;27.00;24.40;;;;;;;10.07;51.56;98734.38;8296139;28;20257;-60
2022/03/17 05:26:00;;;;;;;27.47;24.63;;;;;;;10.02;51.26;98730.25;8305523;28;20236;-60
2022/03/17 05:30:03;;;;;;;28.67;25.90;;;;;;;9.94;52.02;98727.88;8301479;28;20242;-60
2022/03/17 05:34:06;;;;;;;27.50;24.80;;;;;;;9.95;52.20;98732.97;8311793;28;20237;-60
2022/03/17 05:38:10;;;;;;;29.40;26.60;;;;;;;9.63;52.38;98723.56;8315745;28;20248;-60
2022/03/17 05:42:14;;;;;;;29.30;26.27;;;;;;;9.81;52.06;98723.97;8315677;28;20233;-60
2022/03/17 05:46:17;;;;;;;29.73;26.73;;;;;;;9.82;52.17;98728.22;8294522;28;20579;-60
2022/03/17 05:50:21;;;;;;;28.57;25.57;;;;;;;9.89;52.48;98734.91;8301845;28;20233;-60
2022/03/17 05:54:24;;;;;;;28.70;25.60;;;;;;;9.93;51.87;98732.19;8315021;28;20558;-60
2022/03/17 05:58:29;;;;;;;28.57;25.77;;;;;;;9.90;51.71;98737.47;8315315;28;20232;-60
2022/03/17 06:02:31;;;;;;;29.40;26.40;;;;;;;9.97;51.73;98745.88;8314078;28;20231;-60
2022/03/17 06:06:35;;;;;;;30.70;27.67;;;;;;;9.79;51.32;98749.88;8296165;28;20254;-60
2022/03/17 06:10:39;;;;;;;30.03;27.10;;;;;;;9.57;52.09;98747.88;8297507;28;20415;-60
2022/03/17 06:14:44;;;;;;;31.53;28.20;;;;;;;9.65;52.13;98749.41;8297902;28;20234;-60
2022/03/17 06:18:48;;;;;;;31.20;27.53;;;;;;;9.70;51.73;98752.72;8306233;28;20243;-60
2022/03/17 06:22:53;;;;;;;31.63;28.33;;;;;;;9.61;51.59;98758.97;8314648;28;20310;-60
2022/03/17 06:26:56;;;;;;;31.43;28.13;;;;;;;9.33;52.61;98762.31;8316226;28;20251;-60
2022/03/17 06:31:01;;;;;;;31.50;28.30;;;;;;;8.83;53.94;98759.28;8321612;28;20421;-60
2022/03/17 06:35:04;;;;;;;30.40;27.30;;;;;;;9.06;53.87;98755.28;8321460;28;20229;-60
2022/03/17 06:39:07;;;;;;;30.73;27.63;;;;;;;8.93;53.71;98760.78;8321237;28;20228;-60
2022/03/17 06:43:11;;;;;;;29.70;26.67;;;;;;;8.91;53.95;98761.66;8321427;28;20531;-60
2022/03/17 06:47:16;;;;;;;32.37;29.03;;;;;;;8.81;54.32;98758.47;8320858;28;20273;-60
2022/03/17 06:51:19;;;;;;;32.73;29.17;;;;;;;8.94;53.64;98765.03;8320473;28;20235;-60
2022/03/17 06:55:21;;;;;;;32.37;28.97;;;;;;;9.16;53.14;98772.25;8320586;28;20246;-60
2022/03/17 06:59:24;;;;;;;32.03;28.83;;;;;;;9.44;52.77;98779.28;8320352;28;20251;-60
2022/03/17 07:03:29;;;;;;;34.83;28.83;;;;;;;9.60;52.30;98777.97;8320520;28;20232;-60
2022/03/17 07:07:32;;;;;;;31.20;28.10;;;;;;;9.52;52.12;98773.03;8319778;28;20558;-60
2022/03/17 07:11:35;;;;;;;31.57;28.30;;;;;;;9.50;52.67;98767.03;8320089;28;20241;-60
2022/03/17 07:15:38;;;;;;;32.23;29.10;;;;;;;9.17;53.38;98773.94;8320163;28;20431;-60
2022/03/17 07:19:42;;;;;;;32.77;29.33;;;;;;;9.00;54.27;98769.19;8319760;28;20233;-60
2022/03/17 07:23:45;;;;;;;34.37;30.03;;;;;;;9.33;53.84;98772.66;8319660;28;20233;-60
2022/03/17 07:27:49;;;;;;;32.40;28.87;;;;;;;9.81;52.59;98781.72;8319461;28;20558;-60
2022/03/17 07:31:54;;;;;;;31.73;28.53;;;;;;;9.45;53.17;98788.75;8319284;28;20228;-60
2022/03/17 07:35:59;;;;;;;31.97;28.77;;;;;;;9.78;52.58;98785.22;8319396;28;20233;-60
2022/03/17 07:40:02;;;;;;;33.77;29.93;;;;;;;9.58;53.09;98796.13;8318765;28;20236;-60
2022/03/17 07:44:05;;;;;;;32.03;28.80;;;;;;;9.97;52.36;98793.28;8319117;28;20236;-60
2022/03/17 07:48:08;;;;;;;34.07;30.47;;;;;;;9.84;52.97;98796.28;8319123;28;20431;-60
2022/03/17 07:52:13;;;;;;;35.90;31.33;;;;;;;9.61;53.21;98809.84;8319167;28;20536;-60
2022/03/17 07:56:19;;;;;;;32.23;28.87;;;;;;;10.31;51.38;98822.56;8318638;28;20233;-61
2022/03/17 08:00:22;;;;;;;32.30;29.20;;;;;;;10.72;50.51;98836.03;8318670;28;20239;-60
2022/03/17 08:04:25;;;;;;;31.47;28.17;;;;;;;10.95;50.13;98843.06;8318664;28;20524;-60
2022/03/17 08:08:35;;;;;;;34.07;30.47;;;;;;;11.08;49.92;98849.56;8317977;28;20229;-61
2022/03/17 08:12:38;;;;;;;33.47;30.07;;;;;;;11.19;49.13;98853.53;8317866;28;20241;-61
2022/03/17 08:16:41;;;;;;;32.20;28.77;;;;;;;11.32;48.90;98849.63;8317881;28;20232;-60
2022/03/17 08:20:44;;;;;;;36.10;32.30;;;;;;;11.05;48.23;98843.63;8317978;28;20260;-60
2022/03/17 08:24:48;;;;;;;33.07;29.73;;;;;;;10.76;49.85;98841.06;8317466;28;20236;-60
2022/03/17 08:28:51;;;;;;;35.60;31.90;;;;;;;10.78;49.89;98847.94;8317451;28;20239;-60
2022/03/17 08:32:55;;;;;;;34.50;30.70;;;;;;;10.78;49.51;98847.94;8317503;28;20237;-60
2022/03/17 08:36:59;;;;;;;37.30;33.50;;;;;;;10.84;49.46;98848.59;8317423;28;20229;-60
2022/03/17 08:41:04;;;;;;;35.87;32.20;;;;;;;10.56;50.26;98848.56;8317185;28;20241;-60
2022/03/17 08:49:25;;;;;;;32.07;27.17;;;;;;;12.19;67.49;98855.31;8315797;28;20232;-59
2022/03/17 08:53:28;;;;;;;33.20;29.63;;;;;;;12.36;50.15;98850.34;8316942;28;20237;-59
2022/03/17 08:57:33;;;;;;;34.63;31.07;;;;;;;11.95;46.95;98864.81;8316110;28;20228;-59
2022/03/17 09:01:37;;;;;;;30.83;27.53;;;;;;;12.45;48.09;98873.38;8313425;28;20544;-60
2022/03/17 09:05:41;;;;;;;33.20;30.00;;;;;;;11.92;47.02;98866.63;8316427;28;20243;-59
2022/03/17 09:09:45;;;;;;;34.57;31.17;;;;;;;11.74;48.03;98872.44;8316251;28;20300;-58
2022/03/17 09:13:49;;;;;;;35.17;30.40;;;;;;;11.61;48.05;98863.38;8316484;28;20248;-58
2022/03/17 09:17:53;;;;;;;35.07;31.37;;;;;;;11.63;47.02;98869.34;8316177;28;20284;-58
2022/03/17 09:21:56;;;;;;;36.00;32.23;;;;;;;11.55;46.80;98862.66;8316218;28;20232;-58
2022/03/17 09:26:00;;;;;;;36.73;30.93;;;;;;;11.61;47.25;98865.97;8316331;28;20239;-59
2022/03/17 09:30:05;;;;;;;35.53;31.93;;;;;;;11.33;47.65;98857.38;8315917;28;20232;-59
2022/03/17 09:34:09;;;;;;;38.07;34.13;;;;;;;10.99;49.30;98854.19;8315738;28;20237;-58
2022/03/17 09:38:12;;;;;;;37.10;33.37;;;;;;;10.69;49.75;98852.50;8316061;28;20233;-58
2022/03/17 09:42:17;;;;;;;35.53;31.80;;;;;;;11.37;48.77;98855.53;8315888;28;20397;-58
2022/03/17 09:46:22;;;;;;;36.73;32.83;;;;;;;11.14;47.83;98862.31;8315659;28;20233;-58
2022/03/17 09:50:27;;;;;;;34.27;30.47;;;;;;;11.75;47.12;98868.94;8315554;28;20233;-59
2022/03/17 09:54:30;;;;;;;36.83;33.13;;;;;;;11.75;47.23;98866.34;8314813;28;20232;-57
2022/03/17 09:58:34;;;;;;;38.13;32.70;;;;;;;11.38;47.22;98872.78;8314729;28;20655;-58
2022/03/17 10:02:38;;;;;;;35.70;31.90;;;;;;;11.48;48.03;98871.59;8314694;28;20233;-58
2022/03/17 10:06:41;;;;;;;36.27;32.43;;;;;;;11.76;46.64;98882.75;8314801;28;20481;-57
2022/03/17 10:10:45;;;;;;;35.53;31.77;;;;;;;11.64;46.93;98886.63;8314967;28;20248;-57
2022/03/17 10:14:49;;;;;;;36.60;32.57;;;;;;;11.61;46.84;98897.09;8314784;28;20233;-58
2022/03/17 10:19:02;;;;;;;36.13;32.43;;;;;;;11.64;46.82;98902.19;8315098;28;20412;-58
2022/03/17 10:23:06;;;;;;;34.87;31.27;;;;;;;11.60;46.91;98909.22;8314579;28;20233;-58
2022/03/17 10:27:09;;;;;;;35.87;32.13;;;;;;;11.96;46.72;98906.31;8314778;28;20235;-57
2022/03/17 10:31:12;;;;;;;37.97;33.67;;;;;;;11.67;45.89;98904.66;8314611;28;20228;-58
2022/03/17 10:35:24;;;;;;;36.47;32.73;;;;;;;11.72;46.17;98905.38;8314333;28;20239;-58
2022/03/17 10:39:36;;;;;;;36.47;32.77;;;;;;;11.45;46.91;98905.38;8314380;28;20566;-57
2022/03/17 10:43:41;;;;;;;36.87;33.10;;;;;;;11.83;45.96;98895.47;8314167;28;20232;-58
2022/03/17 10:47:44;;;;;;;36.23;31.90;;;;;;;11.72;46.36;98902.78;8314947;28;20232;-58
2022/03/17 10:51:54;;;;;;;36.80;32.87;;;;;;;11.14;47.87;98897.78;8314522;28;20232;-57
2022/03/17 10:56:10;;;;;;;36.90;33.20;;;;;;;11.60;47.16;98900.59;8314338;28;20251;-58
2022/03/17 11:00:20;;;;;;;38.50;34.27;;;;;;;11.58;47.04;98911.03;8314046;28;20228;-57
2022/03/17 11:04:24;;;;;;;34.70;31.03;;;;;;;11.54;46.85;98909.44;8314071;28;20431;-57
2022/03/17 11:08:29;;;;;;;36.20;32.37;;;;;;;11.41;46.92;98910.75;8314245;28;20240;-57
2022/03/17 11:12:34;;;;;;;35.20;31.50;;;;;;;11.95;46.16;98907.19;8314312;28;20244;-58
2022/03/17 11:16:38;;;;;;;36.67;32.70;;;;;;;11.68;46.25;98903.78;8320040;28;20232;-58
2022/03/17 11:20:42;;;;;;;34.63;31.23;;;;;;;11.82;46.41;98896.38;8302359;28;20225;-58
2022/03/17 11:24:47;;;;;;;34.97;31.20;;;;;;;11.95;46.27;98899.41;8302489;28;20236;-61
2022/03/17 11:28:50;;;;;;;34.73;31.13;;;;;;;11.79;46.31;98900.81;8302364;28;20240;-57
2022/03/17 11:32:55;;;;;;;35.33;31.63;;;;;;;12.21;45.43;98903.69;8302036;28;20233;-58
2022/03/17 11:37:17;;;;;;;36.00;32.17;;;;;;;11.91;45.65;98903.84;8316436;28;20225;-57
2022/03/17 11:41:23;;;;;;;33.77;30.27;;;;;;;12.25;44.36;98907.84;8308649;28;20228;-57
2022/03/17 11:45:37;;;;;;;37.30;30.93;;;;;;;12.44;44.23;98908.03;8301290;28;20239;-57
2022/03/17 11:49:46;;;;;;;35.37;31.77;;;;;;;12.36;44.42;98904.03;8286651;28;20241;-58
2022/03/17 11:54:06;;;;;;;32.93;29.53;;;;;;;12.70;43.90;98907.06;8289139;28;20228;-58
2022/03/17 11:58:24;;;;;;;35.27;31.53;;;;;;;12.30;44.01;98908.56;8318544;28;20229;-57
2022/03/17 12:02:30;;;;;;;32.87;29.37;;;;;;;12.10;44.30;98911.84;8318506;28;20243;-57
2022/03/17 12:06:34;;;;;;;32.53;29.20;;;;;;;12.70;43.76;98916.63;8318216;28;20275;-58
2022/03/17 12:11:02;;;;;;;31.77;28.50;;;;;;;12.97;43.22;98926.88;8318002;28;20236;-58
2022/03/17 12:15:09;;;;;;;32.60;28.57;;;;;;;13.17;42.96;98929.50;8318037;28;20327;-58
2022/03/17 12:19:24;;;;;;;30.87;27.83;;;;;;;13.37;42.39;98920.13;8318028;28;20236;-58
2022/03/17 12:23:46;;;;;;;32.10;28.80;;;;;;;13.48;42.10;98925.75;8317802;28;20577;-57
2022/03/17 12:27:52;;;;;;;34.53;28.60;;;;;;;13.47;42.18;98926.63;8317374;28;20316;-57
2022/03/17 12:31:57;;;;;;;31.50;28.17;;;;;;;13.57;42.42;98927.94;8317878;28;20282;-58
2022/03/17 12:36:05;;;;;;;34.00;29.53;;;;;;;13.62;42.19;98928.59;8317125;28;20233;-58
2022/03/17 12:40:11;;;;;;;33.47;28.00;;;;;;;13.75;42.21;98928.94;8317257;28;20240;-58
2022/03/17 12:44:22;;;;;;;31.60;28.23;;;;;;;13.67;42.05;98931.03;8316947;28;20306;-58
2022/03/17 12:48:26;;;;;;;31.13;27.93;;;;;;;13.72;41.97;98930.81;8317219;28;20248;-58
2022/03/17 12:52:32;;;;;;;29.50;26.43;;;;;;;13.83;42.10;98929.47;8316861;28;20247;-58
2022/03/17 12:56:48;;;;;;;30.30;27.23;;;;;;;13.81;41.85;98931.28;8316428;28;20235;-58
2022/03/17 13:00:50;;;;;;;29.00;26.00;;;;;;;13.88;41.66;98929.28;8316832;28;20418;-58
2022/03/17 13:04:59;;;;;;;29.77;26.70;;;;;;;13.95;41.59;98930.69;8316756;28;20240;-58
2022/03/17 13:09:03;;;;;;;32.90;27.97;;;;;;;13.91;41.30;98923.91;8316170;28;20241;-58
2022/03/17 13:17:31;;;;;;;31.10;26.93;;;;;;;13.97;41.14;98917.59;8316177;28;20253;-58
2022/03/17 13:21:36;;;;;;;29.10;26.07;;;;;;;13.97;40.93;98913.25;8315582;28;20248;-58
2022/03/17 13:25:40;;;;;;;29.73;26.63;;;;;;;14.13;41.29;98918.66;8316119;28;20236;-58
2022/03/17 13:29:54;;;;;;;32.50;26.57;;;;;;;14.11;40.82;98920.47;8315804;28;20243;-58
2022/03/17 13:33:56;;;;;;;29.37;26.17;;;;;;;14.20;41.10;98922.69;8316206;28;20232;-58
2022/03/17 13:38:09;;;;;;;28.50;25.43;;;;;;;14.25;40.88;98928.50;8315425;28;20234;-58
2022/03/17 13:42:13;;;;;;;32.30;24.10;;;;;;;14.27;40.98;98933.66;8315402;28;20233;-58
2022/03/17 13:46:18;;;;;;;29.03;25.80;;;;;;;14.21;40.69;98932.16;8315467;28;20235;-58
2022/03/17 13:50:23;;;;;;;28.10;25.13;;;;;;;14.21;40.53;98940.00;8315498;28;20232;-59
2022/03/17 13:54:28;;;;;;;25.67;23.00;;;;;;;14.33;39.67;98945.56;8315362;28;20336;-58
2022/03/17 13:58:36;;;;;;;27.37;24.40;;;;;;;14.28;40.14;98954.44;8308484;28;20232;-59
2022/03/17 14:02:39;;;;;;;27.67;24.50;;;;;;;14.26;40.14;98956.28;8297822;28;20234;-59
2022/03/17 14:06:43;;;;;;;27.77;24.77;;;;;;;14.01;40.13;98956.50;8285971;28;20585;-58
2022/03/17 14:10:48;;;;;;;26.40;23.60;;;;;;;14.07;40.76;98945.81;8282536;28;20241;-58
2022/03/17 14:14:51;;;;;;;27.43;24.47;;;;;;;14.14;40.51;98956.78;8282643;28;20275;-58
2022/03/17 14:18:55;;;;;;;26.57;23.70;;;;;;;14.04;41.33;98955.50;8282436;28;20412;-59
2022/03/17 14:27:21;;;;;;;28.97;25.67;;;;;;;14.11;42.22;98969.09;8297454;28;20251;-58
2022/03/17 14:31:24;;;;;;;29.90;26.47;;;;;;;13.97;42.05;98970.53;8297144;28;20239;-58
2022/03/17 14:35:27;;;;;;;28.80;25.33;;;;;;;13.95;42.43;98971.50;8297119;28;20236;-58
2022/03/17 14:39:30;;;;;;;28.50;25.40;;;;;;;13.89;42.27;98975.22;8297354;28;20552;-58
2022/03/17 14:43:35;;;;;;;28.93;25.70;;;;;;;13.96;42.18;98979.25;8296708;28;20445;-58
2022/03/17 14:47:38;;;;;;;29.37;25.93;;;;;;;13.82;41.84;98985.06;8297992;28;20221;-61
2022/03/17 14:51:43;;;;;;;31.97;26.10;;;;;;;13.90;42.47;98979.53;8306060;28;20240;-61
2022/03/17 14:56:10;;;;;;;30.60;25.63;;;;;;;13.89;42.48;98990.84;8304107;28;20235;-61
2022/03/17 15:00:16;;;;;;;29.30;26.20;;;;;;;13.79;42.71;98992.97;8304346;28;20279;-62
2022/03/17 15:04:19;;;;;;;27.13;24.33;;;;;;;13.83;42.71;98993.72;8308064;28;20540;-61
2022/03/17 15:08:22;;;;;;;29.10;26.00;;;;;;;13.79;42.81;98994.75;8303221;28;20432;-61
2022/03/17 15:12:25;;;;;;;31.30;26.47;;;;;;;13.66;42.74;98997.00;8299055;28;20245;-61
2022/03/17 15:16:30;;;;;;;28.10;24.70;;;;;;;13.76;42.54;98997.47;8287816;28;20241;-61
2022/03/17 15:20:33;;;;;;;31.13;25.80;;;;;;;13.62;43.15;99013.66;8287460;28;20229;-61
2022/03/17 15:24:36;;;;;;;26.77;23.97;;;;;;;13.80;42.72;99004.25;8287297;28;20248;-61
2022/03/17 15:33:02;;;;;;;28.00;25.00;;;;;;;13.68;43.45;99019.44;8287162;28;20525;-61
2022/03/17 15:37:05;;;;;;;28.87;25.60;;;;;;;13.81;43.79;99016.34;8287060;28;20232;-61
2022/03/17 15:41:08;;;;;;;30.00;26.73;;;;;;;13.79;44.18;99028.59;8286762;28;20302;-61
2022/03/17 15:45:11;;;;;;;28.87;25.80;;;;;;;13.81;43.74;99019.81;8286418;28;20252;-62
2022/03/17 15:49:16;;;;;;;29.77;25.90;;;;;;;13.82;43.70;99037.13;8286673;28;20285;-62
2022/03/17 15:53:19;;;;;;;28.67;25.77;;;;;;;13.76;44.00;99026.09;8319467;28;20418;-61
2022/03/17 15:57:22;;;;;;;29.87;26.47;;;;;;;13.65;44.03;99043.00;8318690;28;20517;-59
2022/03/17 16:01:25;;;;;;;29.00;26.10;;;;;;;13.67;44.33;99050.75;8318606;28;20240;-59
2022/03/17 16:05:31;;;;;;;30.73;26.60;;;;;;;13.72;44.13;99047.97;8318402;28;20440;-59
2022/03/17 16:18:15;;;;;;;30.80;27.20;;;;;;;13.64;44.78;99071.69;8318251;28;20436;-59
2022/03/17 16:22:19;;;;;;;31.67;28.23;;;;;;;13.61;45.48;99077.00;8318145;28;20228;-59
2022/03/17 16:26:22;;;;;;;33.23;28.00;;;;;;;13.57;45.06;99080.66;8311686;28;20427;-59
2022/03/17 16:30:27;;;;;;;39.73;35.50;;;;;;;13.55;45.36;99090.28;8317620;28;20233;-58
2022/03/17 16:34:30;;;;;;;38.90;35.00;;;;;;;13.42;46.05;99092.47;8317515;28;20331;-58
2022/03/17 16:38:35;;;;;;;39.63;33.33;;;;;;;13.43;46.06;99094.19;8317313;28;20236;-58
2022/03/17 16:42:38;;;;;;;35.97;32.30;;;;;;;13.24;47.08;99097.44;8317172;28;20258;-59
2022/03/17 16:46:41;;;;;;;34.67;31.03;;;;;;;13.36;46.93;99106.56;8316826;28;20236;-58
2022/03/17 16:50:44;;;;;;;36.33;32.63;;;;;;;13.20;47.68;99108.03;8317242;28;20469;-58
2022/03/17 16:54:48;;;;;;;39.00;34.87;;;;;;;13.16;47.71;99111.66;8316566;28;20236;-58
2022/03/17 16:58:51;;;;;;;38.23;33.03;;;;;;;13.20;47.88;99113.22;8316702;28;20252;-59
2022/03/17 17:02:54;;;;;;;37.07;33.20;;;;;;;13.24;47.56;99122.63;8306264;28;20443;-59
2022/03/17 17:06:59;;;;;;;37.73;33.73;;;;;;;13.32;47.63;99127.56;8283948;28;20292;-59
2022/03/17 17:11:04;;;;;;;36.27;32.47;;;;;;;13.22;47.52;99129.63;8283104;28;20646;-59
2022/03/17 17:15:09;;;;;;;33.37;29.77;;;;;;;13.30;46.74;99125.03;8283798;28;20276;-59
2022/03/17 17:19:12;;;;;;;33.33;29.93;;;;;;;13.22;46.58;99130.47;8283789;28;20230;-59
2022/03/17 17:31:57;;;;;;;84.33;65.77;;;;;;;13.05;46.92;99138.03;8285591;28;20233;-58
2022/03/17 17:36:00;;;;;;;68.43;57.33;;;;;;;13.03;47.15;99142.44;8283061;28;20236;-59
2022/03/17 17:40:04;;;;;;;43.93;39.40;;;;;;;13.02;47.25;99156.34;8283178;28;20229;-59
2022/03/17 17:44:08;;;;;;;37.33;33.40;;;;;;;13.04;47.61;99163.22;8288107;28;20236;-59
2022/03/17 17:48:11;;;;;;;33.47;29.90;;;;;;;12.94;47.86;99164.41;8299833;28;20232;-59
2022/03/17 17:52:14;;;;;;;31.20;27.93;;;;;;;12.95;47.78;99171.31;8292022;28;20332;-59
2022/03/17 17:56:17;;;;;;;36.70;29.90;;;;;;;12.88;48.34;99175.03;8292016;28;20241;-58
2022/03/17 18:00:22;;;;;;;34.80;30.93;;;;;;;12.91;48.19;99180.13;8288171;28;20230;-58
2022/03/17 18:04:26;;;;;;;36.57;32.67;;;;;;;12.84;48.26;99183.84;8314863;28;20236;-59
2022/03/17 18:08:30;;;;;;;36.70;33.00;;;;;;;12.77;48.67;99182.34;8314838;28;20543;-59
2022/03/17 18:12:33;;;;;;;40.03;34.13;;;;;;;12.77;48.52;99185.78;8301331;28;20237;-59
2022/03/17 18:16:37;;;;;;;34.27;30.60;;;;;;;12.84;47.94;99184.69;8282514;28;20260;-59
2022/03/17 18:20:40;;;;;;;33.43;30.03;;;;;;;12.81;47.97;99189.13;8282273;28;20240;-59
2022/03/17 18:24:43;;;;;;;34.07;30.27;;;;;;;12.77;47.57;99192.75;8281149;28;20240;-59
2022/03/17 18:28:46;;;;;;;34.27;30.57;;;;;;;12.74;47.45;99198.91;8282395;28;20434;-59
2022/03/17 18:32:51;;;;;;;34.10;30.53;;;;;;;12.73;47.52;99197.19;8282367;28;20429;-59
2022/03/17 18:36:54;;;;;;;33.03;29.63;;;;;;;12.78;47.05;99200.50;8282190;28;20244;-59
2022/03/17 18:40:59;;;;;;;33.40;29.70;;;;;;;12.69;46.95;99206.84;8282150;28;20238;-59
2022/03/17 18:45:02;;;;;;;36.47;30.47;;;;;;;12.74;47.20;99211.91;8294791;28;20232;-59
2022/03/17 18:49:07;;;;;;;33.27;29.93;;;;;;;12.67;47.44;99218.19;8296865;28;20225;-58
2022/03/17 18:53:09;;;;;;;33.70;30.20;;;;;;;12.74;47.07;99226.63;8297295;28;20231;-58
2022/03/17 18:57:12;;;;;;;33.20;29.73;;;;;;;12.64;47.12;99226.06;8296964;28;20232;-62
2022/03/17 19:01:17;;;;;;;32.77;29.53;;;;;;;12.68;47.02;99233.75;8310294;28;20233;-58
2022/03/17 19:05:22;;;;;;;37.03;31.23;;;;;;;12.56;47.10;99236.72;8314285;28;20252;-58
2022/03/17 19:09:29;;;;;;;35.50;31.30;;;;;;;12.47;46.99;99244.81;8314106;28;20237;-58
2022/03/17 19:13:32;;;;;;;33.00;29.33;;;;;;;12.30;48.08;99246.22;8313232;28;20255;-59
2022/03/17 19:17:35;;;;;;;33.77;30.47;;;;;;;12.63;47.31;99248.63;8314073;28;20568;-58
2022/03/17 19:21:39;;;;;;;31.60;28.10;;;;;;;12.74;47.09;99256.09;8313720;28;20244;-58
2022/03/17 19:25:42;;;;;;;36.17;32.47;;;;;;;12.46;47.14;99253.53;8313515;28;20237;-58
2022/03/17 19:29:45;;;;;;;26.10;19.83;;;;;;;14.42;56.94;99266.56;8313447;28;20540;-59